CZ-0029 weather

Úvn/Central Military Hospital Střešovice -Pavilion Ch 2 Heliport
Prague, Prague (capital city), Czechia

Public forecast

Using degrees Celsius for public forecast. Weather courtesy of forecast.io.

METAR (pilot weather report)

Closest report is Václav Havel Airport Prague, 4.0 nm (7.5 km) W. Retrieved 2019/01/17 17:34 UTC (15 minutes ago):

LKPR 171734Z 24016G26KT 9999 BKN027 05/01 Q1003 RMK REG QNH 0999

TAF (pilot weather forecast)

Closest forecast is Václav Havel Airport Prague, 4.0 nm (7.5 km) W. Retrieved 2019/01/17 12:16 UTC (6 hours ago):

TAF LKPR 171100Z 1712/1818 23014KT 9999 BKN025 TEMPO 1716/1722 RA BKN017 TEMPO 1718/1800 24018G32KT BECMG 1801/1803 29012KT SCT025 PROB30 TEMPO 1803/1812 31016G28KT 4000 SN BKN017 BECMG 1816/1818 25004KT